Time;durP1;ratioP1;P1;durP2;ratioP2;P2;SDS_P1;SDS_P2;PMS_P1;PMS_P2;Temp;Humidity;BMP_temperature;BMP_pressure;BME280_temperature;BME280_humidity;BME280_pressure;Samples;Min_cycle;Max_cycle;Signal;HPM_P1;HPM_P2
2023/02/02 00:01:45;;;;;;;8.55;1.20;;;;;;;7.77;100.00;101420.75;5079893;28;20028;-83
2023/02/02 00:04:19;;;;;;;8.05;2.17;;;;;;;7.77;100.00;101421.56;5065848;28;20048;-85
2023/02/02 00:06:45;;;;;;;4.50;1.50;;;;;;;7.75;100.00;101423.47;5068808;28;20029;-83
2023/02/02 00:09:13;;;;;;;4.82;1.52;;;;;;;7.77;100.00;101424.19;5051102;28;20063;-83
2023/02/02 00:11:40;;;;;;;9.35;1.60;;;;;;;7.74;100.00;101421.75;5066468;28;20083;-83
2023/02/02 00:14:07;;;;;;;8.57;2.13;;;;;;;7.74;100.00;101427.03;5059565;28;20042;-83
2023/02/02 00:16:35;;;;;;;6.35;1.63;;;;;;;7.78;100.00;101425.03;5059994;28;20032;-83
2023/02/02 00:19:25;;;;;;;9.82;2.33;;;;;;;7.81;100.00;101427.47;5064952;28;20044;-84
2023/02/02 00:21:51;;;;;;;5.55;1.52;;;;;;;7.80;100.00;101421.34;5062814;28;20726;-84
2023/02/02 00:24:18;;;;;;;4.20;1.40;;;;;;;7.82;100.00;101424.75;5060725;28;20051;-83
2023/02/02 00:26:47;;;;;;;6.85;1.52;;;;;;;7.86;100.00;101419.25;5071403;28;20035;-83
2023/02/02 00:29:16;;;;;;;7.25;1.77;;;;;;;7.87;100.00;101420.97;5054822;28;20036;-83
2023/02/02 00:31:41;;;;;;;3.80;1.23;;;;;;;7.86;100.00;101416.63;5082347;28;20036;-83
2023/02/02 00:34:09;;;;;;;5.13;1.45;;;;;;;7.89;100.00;101416.44;5061658;28;20032;-83
2023/02/02 00:36:35;;;;;;;5.78;1.45;;;;;;;7.89;100.00;101411.16;5060464;28;20033;-84
2023/02/02 00:39:01;;;;;;;9.20;2.58;;;;;;;7.89;100.00;101409.38;5066110;28;20055;-83
2023/02/02 00:41:27;;;;;;;5.53;1.33;;;;;;;7.92;100.00;101409.19;5067863;28;20044;-83
2023/02/02 00:46:40;;;;;;;4.75;1.17;;;;;;;8.01;100.00;101406.88;5063915;28;20041;-83
2023/02/02 00:49:07;;;;;;;3.38;0.98;;;;;;;8.00;100.00;101405.19;5032291;28;20040;-83
2023/02/02 00:51:34;;;;;;;1.58;0.93;;;;;;;8.03;100.00;101412.88;5065706;28;20120;-83
2023/02/02 00:53:59;;;;;;;6.25;1.00;;;;;;;8.05;100.00;101417.09;5068901;28;20435;-83
2023/02/02 00:56:25;;;;;;;2.83;0.80;;;;;;;8.05;100.00;101414.47;5056768;28;20037;-83
2023/02/02 00:58:52;;;;;;;4.25;1.45;;;;;;;8.07;100.00;101409.91;5081131;28;20033;-83
2023/02/02 01:01:20;;;;;;;2.42;1.00;;;;;;;8.08;100.00;101405.50;5042352;28;20036;-83
2023/02/02 01:03:47;;;;;;;6.00;1.23;;;;;;;8.06;100.00;101399.50;5074546;28;20049;-80
2023/02/02 01:06:13;;;;;;;4.00;1.20;;;;;;;8.06;100.00;101397.72;5082541;28;20111;-81
2023/02/02 01:08:38;;;;;;;6.18;1.35;;;;;;;8.05;100.00;101392.56;5060064;28;20599;-83
2023/02/02 01:11:05;;;;;;;2.83;1.17;;;;;;;8.08;100.00;101387.06;5041881;28;20041;-83
2023/02/02 01:13:31;;;;;;;4.78;1.10;;;;;;;8.10;100.00;101389.59;5042049;28;20067;-83
2023/02/02 01:15:59;;;;;;;5.18;1.20;;;;;;;8.09;100.00;101385.28;5049324;28;20028;-83
2023/02/02 01:18:26;;;;;;;3.55;1.08;;;;;;;8.09;100.00;101387.94;5066744;28;20099;-83
2023/02/02 01:21:16;;;;;;;2.85;1.10;;;;;;;8.10;100.00;101384.34;5067120;28;20043;-83
2023/02/02 01:23:42;;;;;;;3.28;1.10;;;;;;;8.05;100.00;101382.88;5056907;28;20031;-84
2023/02/02 01:26:11;;;;;;;6.57;1.33;;;;;;;8.08;100.00;101379.19;5045940;28;20035;-83
2023/02/02 01:28:38;;;;;;;2.45;1.00;;;;;;;8.12;100.00;101374.56;5061323;28;20048;-84
2023/02/02 01:31:09;;;;;;;3.78;1.30;;;;;;;8.18;100.00;101376.75;5063879;28;20540;-83
2023/02/02 01:33:36;;;;;;;5.22;1.20;;;;;;;8.21;100.00;101373.91;5079919;28;20032;-83
2023/02/02 01:36:06;;;;;;;1.70;0.80;;;;;;;8.29;100.00;101376.88;5064877;28;20033;-83
2023/02/02 01:38:32;;;;;;;3.85;1.02;;;;;;;8.38;100.00;101375.38;5062947;28;20055;-83
2023/02/02 01:40:59;;;;;;;6.03;1.60;;;;;;;8.47;100.00;101373.06;5068127;28;20918;-83
2023/02/02 01:43:40;;;;;;;8.20;2.47;;;;;;;8.54;100.00;101371.66;5053236;28;20574;-83
2023/02/02 01:46:14;;;;;;;3.95;1.52;;;;;;;8.56;100.00;101370.66;5066906;28;20140;-83
2023/02/02 01:48:45;;;;;;;5.00;1.30;;;;;;;8.60;100.00;101373.06;5081159;28;20093;-81
2023/02/02 01:51:20;;;;;;;5.13;1.15;;;;;;;8.64;100.00;101367.47;5058287;28;20494;-81
2023/02/02 01:53:49;;;;;;;6.65;1.35;;;;;;;8.64;100.00;101354.28;5082531;28;20532;-83
2023/02/02 01:56:23;;;;;;;6.97;1.45;;;;;;;8.69;100.00;101359.25;5046461;28;20093;-83
2023/02/02 01:58:49;;;;;;;4.90;1.73;;;;;;;8.69;100.00;101359.25;5060346;28;20103;-81
2023/02/02 02:01:15;;;;;;;6.90;1.30;;;;;;;8.68;100.00;101355.75;5047752;28;20064;-81
2023/02/02 02:03:43;;;;;;;4.93;1.10;;;;;;;8.71;100.00;101361.75;5068088;28;20048;-83
2023/02/02 02:06:15;;;;;;;4.05;1.00;;;;;;;8.73;100.00;101350.16;5052436;28;20036;-83
2023/02/02 02:08:52;;;;;;;3.47;0.85;;;;;;;8.73;100.00;101355.41;5077226;28;20040;-83
2023/02/02 02:11:20;;;;;;;4.88;0.95;;;;;;;8.73;100.00;101358.06;5068843;28;20031;-83
2023/02/02 02:16:53;;;;;;;5.55;0.93;;;;;;;8.77;100.00;101349.00;5075004;28;20037;-83
2023/02/02 02:19:25;;;;;;;4.53;0.82;;;;;;;8.78;100.00;101353.31;5076680;28;20036;-84
2023/02/02 02:27:47;;;;;;;9.73;1.35;;;;;;;8.78;100.00;101350.66;5073234;28;20039;-83
2023/02/02 02:30:43;;;;;;;4.38;1.45;;;;;;;8.80;100.00;101353.19;5048883;28;20028;-83
2023/02/02 02:33:23;;;;;;;3.72;1.23;;;;;;;8.78;100.00;101341.91;5037530;28;20554;-83
2023/02/02 02:36:15;;;;;;;4.35;0.90;;;;;;;8.78;100.00;101347.19;5083386;28;20032;-84
2023/02/02 02:38:50;;;;;;;6.22;0.98;;;;;;;8.76;100.00;101342.03;5043746;28;20052;-83
2023/02/02 02:41:21;;;;;;;8.50;1.17;;;;;;;8.77;100.00;101334.97;5065633;28;20558;-83
2023/02/02 02:44:10;;;;;;;14.43;1.15;;;;;;;8.81;100.00;101323.25;5068596;28;20048;-82
2023/02/02 02:46:37;;;;;;;6.55;1.02;;;;;;;8.78;100.00;101326.09;5065956;28;20449;-83
2023/02/02 02:49:07;;;;;;;8.25;1.45;;;;;;;8.75;100.00;101321.91;5052543;28;20032;-83
2023/02/02 02:51:49;;;;;;;5.28;1.30;;;;;;;8.80;100.00;101321.56;5030542;28;20477;-82
2023/02/02 02:54:28;;;;;;;2.78;0.73;;;;;;;8.80;100.00;101322.41;5057842;28;20099;-83
2023/02/02 02:57:19;;;;;;;2.45;0.80;;;;;;;8.79;100.00;101325.16;5069284;28;20043;-83
2023/02/02 03:00:08;;;;;;;2.42;0.60;;;;;;;8.78;100.00;101316.41;5069788;28;20028;-82
2023/02/02 03:02:59;;;;;;;4.05;0.65;;;;;;;8.81;100.00;101321.44;5088561;28;20044;-82
2023/02/02 03:05:36;;;;;;;9.95;0.95;;;;;;;8.82;100.00;101319.66;5088034;28;20046;-84
2023/02/02 03:08:01;;;;;;;5.40;1.20;;;;;;;8.80;100.00;101317.13;5081520;28;20028;-83
2023/02/02 03:10:30;;;;;;;6.80;0.98;;;;;;;8.84;100.00;101319.56;5064395;28;20459;-83
2023/02/02 03:12:56;;;;;;;6.65;1.33;;;;;;;8.85;100.00;101323.88;5071527;28;20031;-83
2023/02/02 03:15:22;;;;;;;3.10;0.60;;;;;;;8.84;100.00;101319.56;5071140;28;20040;-82
2023/02/02 03:17:52;;;;;;;2.50;0.55;;;;;;;8.87;100.00;101306.16;5087094;28;20393;-83
2023/02/02 03:20:19;;;;;;;7.40;1.55;;;;;;;8.89;100.00;101317.41;5066799;28;20111;-84
2023/02/02 03:22:44;;;;;;;5.10;0.88;;;;;;;8.89;100.00;101312.97;5068672;28;20081;-83
2023/02/02 03:25:10;;;;;;;5.93;0.80;;;;;;;8.90;100.00;101322.56;5050106;28;20462;-81
2023/02/02 03:27:38;;;;;;;5.22;0.90;;;;;;;8.92;100.00;101315.41;5070433;28;20116;-80
2023/02/02 03:30:06;;;;;;;4.28;0.60;;;;;;;8.91;100.00;101311.09;5068806;28;20040;-83
2023/02/02 03:32:32;;;;;;;6.03;0.75;;;;;;;8.92;100.00;101311.91;5062034;28;20489;-83
2023/02/02 03:34:58;;;;;;;6.45;0.60;;;;;;;8.91;100.00;101318.16;5084252;28;20031;-84
2023/02/02 03:37:24;;;;;;;5.55;0.90;;;;;;;8.94;100.00;101315.28;5068123;28;20419;-84
2023/02/02 03:39:49;;;;;;;4.90;0.70;;;;;;;8.93;100.00;101310.97;5066607;28;20044;-84
2023/02/02 03:42:15;;;;;;;10.20;1.05;;;;;;;8.93;100.00;101310.97;5070489;28;20105;-83
2023/02/02 03:44:41;;;;;;;10.25;0.73;;;;;;;8.93;100.00;101310.97;5047160;28;20037;-81
2023/02/02 03:47:06;;;;;;;4.55;0.40;;;;;;;8.92;100.00;101296.94;5045736;28;20037;-81
2023/02/02 03:49:32;;;;;;;6.25;0.60;;;;;;;8.92;100.00;101296.94;5049106;28;20048;-84
2023/02/02 03:51:58;;;;;;;3.78;0.88;;;;;;;8.92;100.00;101290.81;5064824;28;20033;-83
2023/02/02 03:54:24;;;;;;;3.92;0.45;;;;;;;8.90;100.00;101277.75;5070608;28;20031;-84
2023/02/02 03:56:49;;;;;;;5.00;0.47;;;;;;;8.91;100.00;101283.88;5071381;28;20039;-83
2023/02/02 03:59:15;;;;;;;5.30;0.65;;;;;;;8.90;100.00;101279.56;5067046;28;20029;-84
2023/02/02 04:01:41;;;;;;;4.25;0.85;;;;;;;8.85;100.00;101265.88;5059356;28;20037;-83
2023/02/02 04:04:07;;;;;;;4.05;0.90;;;;;;;8.83;100.00;101273.88;5064032;28;20477;-81
2023/02/02 04:06:33;;;;;;;3.35;0.63;;;;;;;8.77;100.00;101276.97;5052701;28;20029;-81
2023/02/02 04:08:58;;;;;;;5.55;0.68;;;;;;;8.74;100.00;101280.69;5068273;28;20033;-81
2023/02/02 04:11:24;;;;;;;3.10;0.55;;;;;;;8.73;100.00;101275.53;5061054;28;20107;-80
2023/02/02 04:13:50;;;;;;;3.08;0.73;;;;;;;8.69;100.00;101281.00;5078598;28;20496;-83
2023/02/02 04:16:15;;;;;;;2.72;0.30;;;;;;;8.67;100.00;101289.97;5068866;28;20033;-83
2023/02/02 04:18:41;;;;;;;5.07;0.60;;;;;;;8.66;100.00;101285.66;5043448;28;20036;-83
2023/02/02 04:21:07;;;;;;;3.58;0.45;;;;;;;8.64;100.00;101288.41;5069189;28;20473;-84
2023/02/02 04:23:33;;;;;;;3.22;0.50;;;;;;;8.62;100.00;101277.13;5065699;28;20087;-83
2023/02/02 04:26:00;;;;;;;1.45;0.35;;;;;;;8.59;100.00;101284.41;5086397;28;20037;-83
2023/02/02 04:28:26;;;;;;;1.83;0.50;;;;;;;8.58;100.00;101282.72;5065793;28;20035;-81
2023/02/02 04:30:54;;;;;;;1.85;0.35;;;;;;;8.57;100.00;101287.16;5061449;28;20089;-81
2023/02/02 04:33:20;;;;;;;4.95;0.75;;;;;;;8.53;100.00;101281.25;5067817;28;20028;-83
2023/02/02 04:35:46;;;;;;;4.32;0.55;;;;;;;8.52;100.00;101284.81;5046282;28;20127;-84
2023/02/02 04:38:12;;;;;;;2.88;0.63;;;;;;;8.54;100.00;101282.94;5068377;28;20115;-83
2023/02/02 04:40:40;;;;;;;2.78;0.60;;;;;;;8.53;100.00;101277.75;5082331;28;20043;-84
2023/02/02 04:43:06;;;;;;;2.92;0.43;;;;;;;8.54;100.00;101287.34;5068395;28;20029;-84
2023/02/02 04:45:32;;;;;;;2.97;0.40;;;;;;;8.56;100.00;101275.78;5067418;28;20508;-81
2023/02/02 04:47:58;;;;;;;1.35;0.30;;;;;;;8.61;100.00;101282.50;5057498;28;20028;-81
2023/02/02 04:50:23;;;;;;;2.88;0.40;;;;;;;8.65;100.00;101283.97;4990902;28;20369;-81
2023/02/02 04:52:49;;;;;;;6.07;0.60;;;;;;;8.67;100.00;101282.06;5073533;28;20028;-81
2023/02/02 04:55:15;;;;;;;6.25;0.50;;;;;;;8.70;100.00;101287.13;5065900;28;20032;-83
2023/02/02 04:57:41;;;;;;;0.82;0.22;;;;;;;8.72;100.00;101294.91;5083397;28;20043;-83
2023/02/02 05:00:10;;;;;;;3.03;0.47;;;;;;;8.71;100.00;101301.16;5059502;28;20093;-81
2023/02/02 05:02:37;;;;;;;2.92;0.40;;;;;;;8.69;100.00;101290.72;5038478;28;20130;-81
2023/02/02 05:05:04;;;;;;;3.03;0.50;;;;;;;8.65;100.00;101298.00;5070247;28;20116;-84
2023/02/02 05:07:30;;;;;;;3.55;0.47;;;;;;;8.63;100.00;101299.06;5068465;28;20137;-83
2023/02/02 05:09:56;;;;;;;1.23;0.50;;;;;;;8.63;100.00;101288.53;5068281;28;20492;-83
2023/02/02 05:12:22;;;;;;;1.08;0.20;;;;;;;8.60;100.00;101292.19;5069253;28;20036;-84
2023/02/02 05:14:48;;;;;;;5.45;0.22;;;;;;;8.58;100.00;101293.28;5068086;28;20108;-83
2023/02/02 05:17:13;;;;;;;2.47;0.40;;;;;;;8.54;100.00;101275.03;5067848;28;20380;-84
2023/02/02 05:19:40;;;;;;;2.53;0.40;;;;;;;8.54;100.00;101288.22;5067379;28;20397;-83
2023/02/02 05:22:06;;;;;;;2.10;0.30;;;;;;;8.51;100.00;101291.06;5060161;28;20048;-83
2023/02/02 05:24:32;;;;;;;2.50;0.32;;;;;;;8.51;100.00;101298.09;5063979;28;20032;-83
2023/02/02 05:26:59;;;;;;;5.45;0.63;;;;;;;8.51;100.00;101298.94;5066699;28;20033;-83
2023/02/02 05:29:26;;;;;;;4.00;0.43;;;;;;;8.54;100.00;101296.13;5062221;28;20072;-84
2023/02/02 05:31:53;;;;;;;0.63;0.30;;;;;;;8.54;100.00;101298.75;5051084;28;20036;-82
2023/02/02 05:34:19;;;;;;;1.08;0.32;;;;;;;8.55;100.00;101292.53;5067828;28;20031;-83
2023/02/02 05:36:45;;;;;;;3.58;0.20;;;;;;;8.56;100.00;101290.75;5080540;28;20119;-83
2023/02/02 05:39:11;;;;;;;4.50;0.55;;;;;;;8.55;100.00;101296.97;5069469;28;20032;-83
2023/02/02 05:41:37;;;;;;;0.32;0.15;;;;;;;8.57;100.00;101310.88;5072691;28;20044;-83
2023/02/02 05:44:03;;;;;;;1.55;0.28;;;;;;;8.57;100.00;101302.97;5049795;28;20405;-82
2023/02/02 05:46:29;;;;;;;0.85;0.22;;;;;;;8.58;100.00;101306.44;5069175;28;20032;-83
2023/02/02 05:48:57;;;;;;;2.60;0.50;;;;;;;8.57;100.00;101302.97;5046092;28;20037;-82
2023/02/02 05:51:30;;;;;;;4.82;0.40;;;;;;;8.60;100.00;101317.72;5062480;28;20032;-83
2023/02/02 05:53:56;;;;;;;7.43;0.50;;;;;;;8.59;100.00;101316.88;5069816;28;20063;-81
2023/02/02 05:56:22;;;;;;;5.75;0.70;;;;;;;8.60;100.00;101331.72;5067358;28;20040;-81
2023/02/02 05:58:48;;;;;;;6.55;1.15;;;;;;;8.60;100.00;101331.72;5068716;28;20032;-83
2023/02/02 06:01:15;;;;;;;4.35;0.50;;;;;;;8.62;100.00;101323.72;5064994;28;20024;-82
2023/02/02 06:03:41;;;;;;;3.65;0.40;;;;;;;8.61;100.00;101322.03;5068439;28;20101;-82
2023/02/02 06:06:07;;;;;;;5.13;0.60;;;;;;;8.60;100.00;101325.63;5066229;28;20033;-83
2023/02/02 06:08:34;;;;;;;1.40;0.30;;;;;;;8.60;100.00;101326.47;5060754;28;20090;-83
2023/02/02 06:11:11;;;;;;;6.50;0.50;;;;;;;8.60;100.00;101321.19;5082386;28;20040;-83
2023/02/02 06:13:38;;;;;;;2.55;0.40;;;;;;;8.58;100.00;101319.63;5066781;28;20113;-82
2023/02/02 06:16:05;;;;;;;7.63;0.50;;;;;;;8.58;100.00;101309.09;5083246;28;20071;-83
2023/02/02 06:18:30;;;;;;;2.00;0.60;;;;;;;8.59;100.00;101308.13;5065848;28;20025;-83
2023/02/02 06:20:57;;;;;;;2.92;0.45;;;;;;;8.57;100.00;101316.13;5049916;28;20044;-83
2023/02/02 06:23:23;;;;;;;1.95;0.25;;;;;;;8.58;100.00;101315.22;5082990;28;20036;-81
2023/02/02 06:25:49;;;;;;;2.42;0.30;;;;;;;8.59;100.00;101313.38;5063094;28;20086;-82
2023/02/02 06:28:15;;;;;;;2.58;0.30;;;;;;;8.60;100.00;101312.47;5053513;28;20036;-81
2023/02/02 06:30:41;;;;;;;2.72;0.47;;;;;;;8.60;100.00;101317.72;5060714;28;20052;-83
2023/02/02 06:33:06;;;;;;;4.65;0.50;;;;;;;8.61;100.00;101317.63;5068488;28;20065;-83
2023/02/02 06:35:32;;;;;;;5.70;0.60;;;;;;;8.60;100.00;101323.81;5064038;28;20044;-83
2023/02/02 06:37:58;;;;;;;5.82;0.50;;;;;;;8.61;100.00;101322.03;5048131;28;20056;-84
2023/02/02 06:40:25;;;;;;;6.47;0.30;;;;;;;8.59;100.00;101316.88;5070861;28;20078;-84
2023/02/02 06:43:02;;;;;;;2.25;0.30;;;;;;;8.63;100.00;101314.88;5035604;28;20068;-83
2023/02/02 06:45:29;;;;;;;5.13;0.55;;;;;;;8.59;100.00;101311.59;5084339;28;20050;-84
2023/02/02 06:48:02;;;;;;;2.65;0.45;;;;;;;8.63;100.00;101325.41;5052762;28;20051;-83
2023/02/02 06:50:28;;;;;;;3.55;0.50;;;;;;;8.60;100.00;101323.00;5068076;28;20082;-83
2023/02/02 06:52:54;;;;;;;5.72;0.90;;;;;;;8.62;100.00;101340.38;5084014;28;20032;-84
2023/02/02 06:55:20;;;;;;;6.65;1.02;;;;;;;8.60;100.00;101323.00;5068693;28;20035;-84
2023/02/02 06:57:46;;;;;;;5.65;0.88;;;;;;;8.61;100.00;101322.03;5049284;28;20039;-83
2023/02/02 07:00:12;;;;;;;3.40;0.95;;;;;;;8.59;100.00;101331.84;5058729;28;20056;-80
2023/02/02 07:02:38;;;;;;;8.30;0.65;;;;;;;8.57;100.00;101324.03;5062858;28;20048;-80
2023/02/02 07:05:05;;;;;;;4.82;0.65;;;;;;;8.53;100.00;101333.09;5067357;28;20035;-80
2023/02/02 07:07:32;;;;;;;3.10;0.40;;;;;;;8.49;100.00;101329.81;5066387;28;20086;-80
2023/02/02 07:09:57;;;;;;;4.90;0.80;;;;;;;8.42;100.00;101310.16;5067611;28;20074;-80
2023/02/02 07:12:23;;;;;;;5.72;0.80;;;;;;;8.38;100.00;101321.84;5085269;28;20106;-80
2023/02/02 07:14:49;;;;;;;5.60;0.70;;;;;;;8.34;100.00;101318.59;5049625;28;20067;-80
2023/02/02 07:17:15;;;;;;;0.95;0.47;;;;;;;8.25;100.00;101314.81;5070892;28;20056;-80
2023/02/02 07:19:41;;;;;;;6.53;0.93;;;;;;;8.17;100.00;101317.97;5067072;28;20121;-79
2023/02/02 07:22:07;;;;;;;5.38;0.77;;;;;;;8.14;100.00;101320.81;5053703;28;20041;-80
2023/02/02 07:24:32;;;;;;;4.20;0.50;;;;;;;8.13;100.00;101320.94;5068462;28;20040;-80
2023/02/02 07:26:58;;;;;;;3.30;0.73;;;;;;;8.09;100.00;101314.19;5070401;28;20036;-80
2023/02/02 07:29:24;;;;;;;6.78;0.88;;;;;;;8.06;100.00;101310.81;5068650;28;20033;-81
2023/02/02 07:31:50;;;;;;;6.47;1.05;;;;;;;8.05;100.00;101311.78;5069251;28;20032;-81
2023/02/02 07:34:15;;;;;;;4.72;0.57;;;;;;;8.04;100.00;101310.06;5064595;28;20490;-82
2023/02/02 07:36:41;;;;;;;5.47;0.57;;;;;;;8.05;100.00;101303.03;5076450;28;20041;-81
2023/02/02 07:39:07;;;;;;;4.32;0.57;;;;;;;8.07;100.00;101307.22;5047701;28;20035;-81
2023/02/02 07:41:35;;;;;;;8.88;0.80;;;;;;;8.10;100.00;101307.97;5082464;28;20040;-81
2023/02/02 07:44:02;;;;;;;3.47;0.90;;;;;;;8.13;100.00;101303.34;5065718;28;20761;-80
2023/02/02 07:46:27;;;;;;;5.40;0.57;;;;;;;8.14;100.00;101307.66;5067449;28;20033;-80
2023/02/02 07:48:54;;;;;;;5.57;0.77;;;;;;;8.16;100.00;101305.75;5049256;28;20044;-81
2023/02/02 07:51:20;;;;;;;9.27;0.85;;;;;;;8.18;100.00;101308.28;5068393;28;20078;-81
2023/02/02 07:53:48;;;;;;;7.68;0.63;;;;;;;8.20;100.00;101309.03;5070116;28;20024;-82
2023/02/02 07:56:19;;;;;;;7.57;0.70;;;;;;;8.21;100.00;101317.75;5074785;28;20037;-81
2023/02/02 07:58:45;;;;;;;7.78;0.60;;;;;;;8.17;100.00;101307.44;5070564;28;20107;-81
2023/02/02 08:01:14;;;;;;;6.38;0.68;;;;;;;8.19;100.00;101315.22;5064157;28;20406;-81
2023/02/02 08:03:41;;;;;;;5.15;0.65;;;;;;;8.19;100.00;101323.97;5041805;28;20055;-81
2023/02/02 08:06:11;;;;;;;6.70;0.50;;;;;;;8.22;100.00;101320.28;5067306;28;20024;-82
2023/02/02 08:08:38;;;;;;;7.47;0.90;;;;;;;8.21;100.00;101323.88;5061552;28;20036;-82
2023/02/02 08:11:08;;;;;;;5.57;1.08;;;;;;;8.23;100.00;101321.13;5065562;28;20029;-81
2023/02/02 08:13:34;;;;;;;7.82;1.08;;;;;;;8.19;100.00;101325.75;5080251;28;20036;-81
2023/02/02 08:15:59;;;;;;;5.88;0.55;;;;;;;8.20;100.00;101330.09;5063287;28;20452;-80
2023/02/02 08:18:25;;;;;;;8.05;0.90;;;;;;;8.21;100.00;101341.47;5065812;28;20660;-82
2023/02/02 08:20:51;;;;;;;3.95;0.50;;;;;;;8.21;100.00;101338.81;5080419;28;20449;-81
2023/02/02 08:23:22;;;;;;;2.28;0.45;;;;;;;8.22;100.00;101330.81;5066347;28;20033;-81
2023/02/02 08:25:51;;;;;;;3.08;0.40;;;;;;;8.26;100.00;101326.19;5068471;28;20024;-81
2023/02/02 08:28:17;;;;;;;3.50;0.50;;;;;;;8.22;100.00;101322.91;5062596;28;20036;-82
2023/02/02 08:30:43;;;;;;;4.28;0.50;;;;;;;8.24;100.00;101322.81;5060659;28;20068;-81
2023/02/02 08:33:09;;;;;;;2.92;0.85;;;;;;;8.26;100.00;101326.19;5061557;28;20048;-81
2023/02/02 08:35:40;;;;;;;3.75;0.45;;;;;;;8.31;100.00;101322.28;5068555;28;20054;-81
2023/02/02 08:38:06;;;;;;;3.10;0.50;;;;;;;8.30;100.00;101322.38;5076450;28;20039;-81
2023/02/02 08:40:32;;;;;;;2.00;0.50;;;;;;;8.31;100.00;101318.81;5050986;28;20032;-81
2023/02/02 08:42:58;;;;;;;2.85;0.60;;;;;;;8.32;100.00;101313.44;5067008;28;20104;-81
2023/02/02 08:45:24;;;;;;;5.82;0.50;;;;;;;8.34;100.00;101317.75;5058242;28;20503;-81
2023/02/02 08:47:50;;;;;;;3.75;0.50;;;;;;;8.36;100.00;101321.94;5063844;28;20060;-81
2023/02/02 08:50:17;;;;;;;4.13;0.43;;;;;;;8.38;100.00;101320.06;5041532;28;20081;-81
2023/02/02 08:52:43;;;;;;;2.65;0.57;;;;;;;8.40;100.00;101333.97;5049712;28;20044;-82
2023/02/02 08:55:09;;;;;;;4.07;0.45;;;;;;;8.41;100.00;101329.53;5052417;28;20029;-82
2023/02/02 08:57:35;;;;;;;1.60;0.77;;;;;;;8.43;100.00;101325.84;5087760;28;20035;-82
2023/02/02 09:00:03;;;;;;;3.08;0.30;;;;;;;8.48;100.00;101335.22;5061887;28;20489;-81
2023/02/02 09:02:29;;;;;;;4.00;0.40;;;;;;;8.48;100.00;101332.56;5053208;28;20037;-81
2023/02/02 09:04:55;;;;;;;1.77;0.30;;;;;;;8.49;100.00;101327.19;5047923;28;20021;-82
2023/02/02 09:07:21;;;;;;;1.50;0.28;;;;;;;8.52;100.00;101334.88;5053730;28;20037;-82
2023/02/02 09:09:46;;;;;;;2.50;0.45;;;;;;;8.54;100.00;101330.38;5076236;28;20060;-82
2023/02/02 09:12:12;;;;;;;4.03;0.50;;;;;;;8.57;100.00;101331.94;5060903;28;20032;-81
2023/02/02 09:14:38;;;;;;;2.63;0.50;;;;;;;8.58;100.00;101338.06;5041910;28;20032;-81
2023/02/02 09:17:03;;;;;;;5.78;0.70;;;;;;;8.59;100.00;101339.75;5051769;28;20029;-81
2023/02/02 09:19:29;;;;;;;1.55;0.38;;;;;;;8.63;100.00;101331.50;5063290;28;20029;-81
2023/02/02 09:21:55;;;;;;;4.95;0.43;;;;;;;8.63;100.00;101328.06;5079052;28;20039;-82
2023/02/02 09:24:21;;;;;;;2.63;0.40;;;;;;;8.65;100.00;101341.94;5059136;28;20029;-82
2023/02/02 09:26:46;;;;;;;2.85;0.50;;;;;;;8.69;100.00;101343.44;5050572;28;20037;-82
2023/02/02 09:29:16;;;;;;;1.65;0.50;;;;;;;8.74;100.00;101343.94;5054118;28;20082;-82
2023/02/02 09:31:43;;;;;;;2.33;0.30;;;;;;;8.76;100.00;101349.09;5060827;28;20037;-81
2023/02/02 09:34:11;;;;;;;4.82;0.52;;;;;;;8.80;100.00;101353.19;5057732;28;20492;-82
2023/02/02 09:36:38;;;;;;;3.72;0.45;;;;;;;8.81;100.00;101350.44;5076014;28;20063;-82
2023/02/02 09:39:05;;;;;;;4.50;0.35;;;;;;;8.80;100.00;101342.66;5060493;28;20792;-82
2023/02/02 09:41:36;;;;;;;3.65;0.30;;;;;;;8.80;100.00;101348.78;5076027;28;20032;-81
2023/02/02 09:44:26;;;;;;;2.55;0.45;;;;;;;8.80;100.00;101351.41;5080017;28;20396;-82
2023/02/02 09:47:07;;;;;;;8.13;0.60;;;;;;;8.82;100.00;101356.56;5069347;28;20519;-82
2023/02/02 09:49:38;;;;;;;3.20;0.55;;;;;;;8.81;100.00;101357.50;5072460;28;20116;-81
2023/02/02 09:52:13;;;;;;;1.70;0.43;;;;;;;8.79;100.00;101354.97;5069464;28;20033;-82
2023/02/02 09:54:51;;;;;;;3.77;0.50;;;;;;;8.81;100.00;101363.63;5059642;28;20040;-83
2023/02/02 09:57:22;;;;;;;1.65;0.40;;;;;;;8.84;100.00;101367.00;5068824;28;20035;-82
2023/02/02 09:59:51;;;;;;;3.83;0.63;;;;;;;8.88;100.00;101366.69;5064652;28;20032;-82
2023/02/02 10:02:21;;;;;;;3.65;0.50;;;;;;;8.92;100.00;101373.41;5068855;28;20191;-81
2023/02/02 10:04:54;;;;;;;5.03;0.85;;;;;;;8.96;100.00;101368.75;5048560;28;20115;-81
2023/02/02 10:07:30;;;;;;;2.97;0.60;;;;;;;8.99;100.00;101372.97;5039883;28;20112;-82
2023/02/02 10:10:02;;;;;;;3.55;0.50;;;;;;;9.01;100.00;101373.69;5077888;28;20370;-82
2023/02/02 10:12:46;;;;;;;5.03;0.60;;;;;;;9.02;100.00;101378.84;5061685;28;20111;-81
2023/02/02 10:15:41;;;;;;;3.30;0.50;;;;;;;9.02;100.00;101373.59;5064400;28;20029;-83
2023/02/02 10:18:45;;;;;;;3.22;0.30;;;;;;;9.01;100.00;101377.19;5063339;28;20079;-81
2023/02/02 10:21:57;;;;;;;2.65;0.40;;;;;;;9.02;100.00;101389.41;5082622;28;20111;-82
2023/02/02 10:24:28;;;;;;;3.25;0.32;;;;;;;9.04;100.00;101387.50;5065139;28;20551;-81
2023/02/02 10:27:03;;;;;;;5.00;1.20;;;;;;;9.10;100.00;101388.84;5065069;28;20032;-81
2023/02/02 10:29:58;;;;;;;3.63;0.63;;;;;;;9.13;100.00;101382.50;5052408;28;20393;-82
2023/02/02 10:33:07;;;;;;;6.53;0.47;;;;;;;9.18;100.00;101383.00;5057964;28;20035;-82
2023/02/02 10:35:36;;;;;;;3.22;0.63;;;;;;;9.18;100.00;101390.94;5029812;28;20586;-83
2023/02/02 10:38:30;;;;;;;2.83;0.43;;;;;;;9.19;100.00;101389.97;5082214;28;20502;-82
2023/02/02 10:41:13;;;;;;;2.55;0.50;;;;;;;9.20;100.00;101394.31;5057624;28;20048;-81
2023/02/02 10:44:04;;;;;;;6.22;1.20;;;;;;;9.22;100.00;101392.38;5054701;28;20496;-82
2023/02/02 10:46:51;;;;;;;4.10;0.75;;;;;;;9.22;100.00;101388.91;5079270;28;20028;-82
2023/02/02 10:49:32;;;;;;;3.30;0.38;;;;;;;9.23;100.00;101380.91;5067328;28;20028;-82
2023/02/02 10:52:12;;;;;;;6.22;0.30;;;;;;;9.25;100.00;101384.25;5067590;28;20025;-82
2023/02/02 10:55:00;;;;;;;4.40;0.30;;;;;;;9.25;100.00;101397.44;5081134;28;20028;-82
2023/02/02 10:58:07;;;;;;;1.20;0.40;;;;;;;9.22;100.00;101389.75;5065569;28;20037;-82
2023/02/02 11:00:42;;;;;;;4.22;0.50;;;;;;;9.20;100.00;101382.91;5052616;28;20450;-82
2023/02/02 11:03:12;;;;;;;3.60;0.60;;;;;;;9.20;100.00;101373.19;5085800;28;20416;-82
2023/02/02 11:08:41;;;;;;;1.77;0.20;;;;;;;9.28;100.00;101370.00;5070171;28;20032;-82
2023/02/02 11:11:28;;;;;;;3.77;0.20;;;;;;;9.33;100.00;101372.31;5062343;28;20028;-82
2023/02/02 11:14:09;;;;;;;2.22;0.28;;;;;;;9.39;100.00;101380.63;5067830;28;20028;-83
2023/02/02 11:16:42;;;;;;;2.85;0.50;;;;;;;9.41;100.00;101383.13;5040135;28;20091;-83
2023/02/02 11:19:17;;;;;;;2.85;0.35;;;;;;;9.46;100.00;101380.16;5056341;28;20473;-81
2023/02/02 11:22:04;;;;;;;0.57;0.30;;;;;;;9.48;100.00;101383.50;5084187;28;20036;-82
2023/02/02 11:24:48;;;;;;;1.80;0.40;;;;;;;9.54;100.00;101380.41;5050110;28;20036;-82
2023/02/02 11:27:21;;;;;;;1.70;0.45;;;;;;;9.54;100.00;101377.75;5064278;28;20370;-82
2023/02/02 11:29:50;;;;;;;4.60;0.40;;;;;;;9.59;100.00;101380.09;5061699;28;20114;-83
2023/02/02 11:32:33;;;;;;;2.78;0.43;;;;;;;9.63;100.00;101398.22;5067316;28;20043;-82
2023/02/02 11:35:15;;;;;;;6.40;0.60;;;;;;;9.60;100.00;101393.16;5082892;28;20063;-81
2023/02/02 11:38:06;;;;;;;2.75;0.40;;;;;;;9.60;100.00;101390.53;5068592;28;20145;-81
2023/02/02 11:40:36;;;;;;;3.63;0.40;;;;;;;9.58;100.00;101381.03;5070515;28;20036;-83
2023/02/02 11:43:13;;;;;;;2.78;0.50;;;;;;;9.57;100.00;101389.91;5050312;28;20060;-83
2023/02/02 11:45:41;;;;;;;2.08;0.40;;;;;;;9.57;100.00;101385.47;5060357;28;20041;-81
2023/02/02 11:48:14;;;;;;;3.83;0.40;;;;;;;9.58;100.00;101378.38;5063839;28;20090;-81
2023/02/02 11:50:48;;;;;;;2.92;0.40;;;;;;;9.65;100.00;101366.44;5069015;28;20685;-81
2023/02/02 11:53:53;;;;;;;2.45;0.40;;;;;;;9.64;100.00;101377.94;5066258;28;20113;-81